createdAt,value
2023-02-13T00:10:31.604Z,966.5
2023-02-13T00:25:33.949Z,966.33
2023-02-13T00:40:36.267Z,966.13
2023-02-13T00:55:38.540Z,965.92
2023-02-13T01:10:40.788Z,965.6
2023-02-13T01:25:43.107Z,965.51
2023-02-13T01:40:45.482Z,965.14
2023-02-13T01:55:47.773Z,964.71
2023-02-13T02:10:50.098Z,964.46
2023-02-13T02:25:52.327Z,964.21
2023-02-13T02:40:54.945Z,964.02
2023-02-13T02:55:57.226Z,963.72
2023-02-13T03:10:59.949Z,963.35
2023-02-13T03:26:02.429Z,963.03
2023-02-13T03:41:04.696Z,962.83
2023-02-13T03:56:06.914Z,962.44
2023-02-13T04:11:09.156Z,961.91
2023-02-13T04:26:11.408Z,961.46
2023-02-13T04:41:14.374Z,961.07
2023-02-13T04:56:18.032Z,961
2023-02-13T05:11:22.455Z,960.84
2023-02-13T05:26:24.688Z,960.33
2023-02-13T05:41:27.728Z,960.01
2023-02-13T05:56:30.451Z,959.42
2023-02-13T06:11:32.754Z,959.14
2023-02-13T06:26:34.996Z,958.79
2023-02-13T06:41:37.272Z,958.43
2023-02-13T06:56:39.543Z,958.25
2023-02-13T07:11:41.717Z,957.93
2023-02-13T07:26:43.931Z,957.54
2023-02-13T07:41:46.136Z,957.08
2023-02-13T07:56:48.451Z,956.56
2023-02-13T08:11:50.734Z,956.25
2023-02-13T08:26:52.955Z,955.86
2023-02-13T08:41:55.140Z,955.64
2023-02-13T08:56:58.682Z,955.24
2023-02-13T09:12:01.007Z,954.84
2023-02-13T09:27:03.341Z,954.21
2023-02-13T09:42:05.663Z,953.65
2023-02-13T09:57:07.817Z,953.26
2023-02-13T10:12:10.097Z,953.08
2023-02-13T10:27:12.324Z,952.47
2023-02-13T10:42:14.540Z,952.31
2023-02-13T10:57:16.875Z,952.45
2023-02-13T11:12:19.116Z,952.74
2023-02-13T11:27:22.306Z,952.36
2023-02-13T11:42:24.628Z,952.29
2023-02-13T11:57:26.940Z,951.88
2023-02-13T12:12:29.211Z,951.76
2023-02-13T12:27:31.477Z,951.81
2023-02-13T12:42:33.830Z,951.68
2023-02-13T12:57:36.098Z,951.13
2023-02-13T13:12:38.357Z,950.72
2023-02-13T13:27:40.868Z,950.77
2023-02-13T13:42:43.030Z,950.81
2023-02-13T13:57:45.214Z,950.51
2023-02-13T14:12:47.661Z,950.67
2023-02-13T14:27:49.864Z,950.84
2023-02-13T14:42:52.138Z,950.74
2023-02-13T14:57:54.406Z,950.76
2023-02-13T15:12:56.928Z,950.93
2023-02-13T15:27:59.335Z,951.21
2023-02-13T15:43:01.593Z,951.24
2023-02-13T15:58:03.938Z,951.22
2023-02-13T16:13:06.165Z,951.07
2023-02-13T16:28:08.445Z,950.89
2023-02-13T16:43:10.696Z,950.93
2023-02-13T16:58:12.990Z,950.88
2023-02-13T17:13:15.254Z,950.83
2023-02-13T17:28:17.658Z,950.91
2023-02-13T17:43:19.959Z,950.89
2023-02-13T17:58:22.164Z,950.75
2023-02-13T18:13:24.471Z,950.64
2023-02-13T18:28:26.801Z,950.61
2023-02-13T18:43:29.061Z,950.51
2023-02-13T18:58:31.309Z,950.34
2023-02-13T19:13:33.561Z,950.18
2023-02-13T19:28:35.795Z,949.9
2023-02-13T19:43:38.074Z,949.77
2023-02-13T19:58:40.329Z,949.57
2023-02-13T20:13:42.824Z,949.37
2023-02-13T20:28:45.360Z,949.22
2023-02-13T20:43:47.679Z,949.1
2023-02-13T20:58:49.950Z,948.85
2023-02-13T21:13:52.643Z,948.65
2023-02-13T21:28:54.969Z,948.53
2023-02-13T21:43:57.211Z,948.4
2023-02-13T21:58:59.513Z,948.33
2023-02-13T22:14:01.788Z,948.16
2023-02-13T22:29:04.045Z,948.08
2023-02-13T22:44:06.362Z,948.05
2023-02-13T22:59:08.668Z,948.05
2023-02-13T23:14:10.888Z,948.19
2023-02-13T23:29:13.116Z,948.61
2023-02-13T23:44:15.345Z,949.01
2023-02-13T23:59:17.805Z,949.03
